Time;durP1;ratioP1;P1;durP2;ratioP2;P2;SDS_P1;SDS_P2;PMS_P1;PMS_P2;Temp;Humidity;BMP_temperature;BMP_pressure;BME280_temperature;BME280_humidity;BME280_pressure;Samples;Min_cycle;Max_cycle;Signal;HPM_P1;HPM_P2
2023/05/11 00:00:12;;;;;;;;;;;;;;;24.29;37.05;101246.91;4119561;28;19921;-64
2023/05/11 00:02:14;;;;;;;;;;;;;;;24.28;37.05;101246.06;4114369;28;19932;-63
2023/05/11 00:04:15;;;;;;;;;;;;;;;24.28;37.00;101242.53;4121823;28;19976;-64
2023/05/11 00:06:17;;;;;;;;;;;;;;;24.28;37.14;101242.53;4117711;28;19960;-64
2023/05/11 00:08:19;;;;;;;;;;;;;;;24.29;36.81;101236.16;4115437;28;20416;-64
2023/05/11 00:10:21;;;;;;;;;;;;;;;24.21;37.00;101223.38;4123835;28;19936;-64
2023/05/11 00:12:22;;;;;;;;;;;;;;;24.29;36.99;101233.47;4097292;28;19922;-64
2023/05/11 00:14:25;;;;;;;;;;;;;;;24.19;36.87;101217.28;4119964;28;19932;-64
2023/05/11 00:16:27;;;;;;;;;;;;;;;24.33;37.00;101227.72;4118590;28;19922;-64
2023/05/11 00:18:30;;;;;;;;;;;;;;;24.33;36.81;101227.72;4116179;28;19922;-64
2023/05/11 00:20:31;;;;;;;;;;;;;;;24.34;36.85;101226.72;4127723;28;20012;-64
2023/05/11 00:22:33;;;;;;;;;;;;;;;24.34;37.03;101228.53;4116904;28;19922;-65
2023/05/11 00:24:35;;;;;;;;;;;;;;;24.35;37.01;101231.13;4121584;28;19925;-65
2023/05/11 00:26:36;;;;;;;;;;;;;;;24.36;36.91;101224.78;4133103;28;19922;-65
2023/05/11 00:28:38;;;;;;;;;;;;;;;24.35;37.04;101225.75;4132299;28;19921;-64
2023/05/11 00:30:40;;;;;;;;;;;;;;;24.35;36.81;101224.88;4121427;28;19929;-63
2023/05/11 00:32:42;;;;;;;;;;;;;;;24.34;37.13;101221.34;4132655;28;19979;-64
2023/05/11 00:34:44;;;;;;;;;;;;;;;24.35;36.81;101223.06;4127371;28;19973;-64
2023/05/11 00:36:46;;;;;;;;;;;;;;;24.35;36.86;101223.06;4125234;28;20367;-63
2023/05/11 00:38:48;;;;;;;;;;;;;;;24.35;37.06;101223.06;4132984;28;19945;-64
2023/05/11 00:40:51;;;;;;;;;;;;;;;24.36;37.08;101222.09;4120953;28;19960;-64
2023/05/11 00:42:52;;;;;;;;;;;;;;;24.38;37.00;101221.94;4132824;28;19922;-64
2023/05/11 00:44:54;;;;;;;;;;;;;;;24.39;36.78;101224.50;4128692;28;19931;-64
2023/05/11 00:46:56;;;;;;;;;;;;;;;24.40;36.77;101222.66;4123437;28;19932;-63
2023/05/11 00:48:58;;;;;;;;;;;;;;;24.40;37.03;101220.81;4132786;28;19922;-64
2023/05/11 00:50:59;;;;;;;;;;;;;;;24.41;37.01;101216.28;4122146;28;19929;-64
2023/05/11 00:53:01;;;;;;;;;;;;;;;24.40;36.91;101218.13;4131115;28;19921;-64
2023/05/11 00:55:03;;;;;;;;;;;;;;;24.43;36.78;101221.53;4128825;28;19922;-64
2023/05/11 00:57:05;;;;;;;;;;;;;;;24.43;37.13;101218.84;4122018;28;19926;-63
2023/05/11 00:59:07;;;;;;;;;;;;;;;24.40;37.01;101212.75;4132536;28;19922;-63
2023/05/11 01:01:09;;;;;;;;;;;;;;;24.41;36.95;101205.53;4123181;28;19929;-63
2023/05/11 01:03:13;;;;;;;;;;;;;;;24.43;37.08;101205.41;4129531;28;20108;-64
2023/05/11 01:05:15;;;;;;;;;;;;;;;24.44;37.08;101212.50;4130103;28;20325;-64
2023/05/11 01:07:22;;;;;;;;;;;;;;;24.44;37.02;101207.97;4121747;28;20352;-63
2023/05/11 01:09:40;;;;;;;;;;;;;;;24.46;37.06;101211.38;4123940;28;19926;-63
2023/05/11 01:11:44;;;;;;;;;;;;;;;24.47;36.89;101206.84;4126796;28;20276;-63
2023/05/11 01:13:52;;;;;;;;;;;;;;;24.47;36.70;101205.00;4116549;28;19956;-63
2023/05/11 01:15:55;;;;;;;;;;;;;;;24.46;36.71;101203.31;4118180;28;20075;-63
2023/05/11 01:18:00;;;;;;;;;;;;;;;24.47;36.82;101204.16;4125563;28;19922;-63
2023/05/11 01:20:04;;;;;;;;;;;;;;;24.47;37.04;101206.84;4116356;28;19922;-62
2023/05/11 01:22:26;;;;;;;;;;;;;;;24.45;37.04;101198.91;4103529;28;19926;-63
2023/05/11 01:24:42;;;;;;;;;;;;;;;24.47;37.10;101204.16;4115315;28;19999;-63
2023/05/11 01:26:52;;;;;;;;;;;;;;;24.48;36.94;101209.38;4124441;28;20190;-62
2023/05/11 01:29:06;;;;;;;;;;;;;;;24.49;36.92;101205.72;4120169;28;19928;-63
2023/05/11 01:31:12;;;;;;;;;;;;;;;24.49;36.58;101204.88;4116441;28;19922;-63
2023/05/11 01:33:13;;;;;;;;;;;;;;;24.51;36.55;101208.25;4126557;28;20315;-62
2023/05/11 01:35:20;;;;;;;;;;;;;;;24.52;36.65;101209.97;4115128;28;19925;-62
2023/05/11 01:37:22;;;;;;;;;;;;;;;24.53;36.85;101209.00;4107246;28;19933;-62
2023/05/11 01:39:27;;;;;;;;;;;;;;;24.53;37.03;101211.69;4118883;28;20348;-63
2023/05/11 01:41:30;;;;;;;;;;;;;;;24.51;36.65;101209.13;4117004;28;20017;-63
2023/05/11 01:43:32;;;;;;;;;;;;;;;24.53;36.87;101214.38;4126348;28;19957;-63
2023/05/11 01:45:36;;;;;;;;;;;;;;;24.53;36.83;101212.56;4114754;28;19926;-63
2023/05/11 01:47:40;;;;;;;;;;;;;;;24.52;36.92;101216.22;4124019;28;20327;-63
2023/05/11 01:49:42;;;;;;;;;;;;;;;24.52;36.90;101212.66;4102117;28;19922;-63
2023/05/11 01:51:48;;;;;;;;;;;;;;;24.53;36.67;101215.25;4117154;28;19929;-63
2023/05/11 01:53:50;;;;;;;;;;;;;;;24.55;36.48;101215.94;4125553;28;19960;-63
2023/05/11 01:55:54;;;;;;;;;;;;;;;24.56;36.88;101216.81;4115457;28;19968;-64
2023/05/11 01:57:56;;;;;;;;;;;;;;;24.55;36.48;101224.00;4123292;28;19933;-62
2023/05/11 02:00:02;;;;;;;;;;;;;;;24.56;36.77;101214.13;4119646;28;20360;-63
2023/05/11 02:02:05;;;;;;;;;;;;;;;24.55;36.88;101215.94;4116838;28;20053;-62
2023/05/11 02:04:08;;;;;;;;;;;;;;;24.56;36.63;101223.03;4125318;28;20001;-63
2023/05/11 02:06:10;;;;;;;;;;;;;;;24.57;36.76;101218.50;4115203;28;19922;-63
2023/05/11 02:08:13;;;;;;;;;;;;;;;24.56;36.70;101220.34;4122407;28;19988;-63
2023/05/11 02:10:15;;;;;;;;;;;;;;;24.59;36.68;101227.28;4110223;28;19922;-63
2023/05/11 02:12:18;;;;;;;;;;;;;;;24.56;36.65;101220.34;4129889;28;19938;-63
2023/05/11 02:14:21;;;;;;;;;;;;;;;24.55;36.54;101221.31;4119112;28;19958;-63
2023/05/11 02:16:24;;;;;;;;;;;;;;;24.56;36.65;101222.19;4131277;28;19929;-62
2023/05/11 02:18:27;;;;;;;;;;;;;;;24.56;36.78;101225.72;4123661;28;19974;-63
2023/05/11 02:20:29;;;;;;;;;;;;;;;24.57;36.53;101231.97;4125742;28;19926;-64
2023/05/11 02:22:32;;;;;;;;;;;;;;;24.58;36.59;101235.50;4123782;28;20392;-63
2023/05/11 02:24:34;;;;;;;;;;;;;;;24.57;36.49;101231.97;4124872;28;19928;-63
2023/05/11 02:26:35;;;;;;;;;;;;;;;24.59;36.74;101231.81;4126419;28;19926;-63
2023/05/11 02:28:37;;;;;;;;;;;;;;;24.59;36.77;101227.28;4109286;28;19929;-63
2023/05/11 02:30:43;;;;;;;;;;;;;;;24.62;36.80;101237.78;4122102;28;19922;-62
2023/05/11 02:32:49;;;;;;;;;;;;;;;24.60;36.47;101230.84;4115659;28;19932;-63
2023/05/11 02:34:57;;;;;;;;;;;;;;;24.62;36.47;101234.22;4125063;28;20393;-63
2023/05/11 02:37:01;;;;;;;;;;;;;;;24.64;36.74;101233.13;4115159;28;19925;-63
2023/05/11 02:39:05;;;;;;;;;;;;;;;24.62;36.63;101235.09;4120696;28;20295;-63
2023/05/11 02:41:10;;;;;;;;;;;;;;;24.63;36.57;101230.53;4120768;28;19926;-63
2023/05/11 02:43:12;;;;;;;;;;;;;;;24.62;36.58;101227.03;4116460;28;20044;-63
2023/05/11 02:45:15;;;;;;;;;;;;;;;24.63;36.80;101225.16;4124424;28;19926;-63
2023/05/11 02:47:18;;;;;;;;;;;;;;;24.64;36.38;101232.25;4097988;29;19922;-63
2023/05/11 02:49:22;;;;;;;;;;;;;;;24.63;36.61;101228.72;4120311;28;20369;-63
2023/05/11 02:51:27;;;;;;;;;;;;;;;24.63;36.81;101227.84;4121185;28;19926;-64
2023/05/11 02:53:30;;;;;;;;;;;;;;;24.66;36.31;101230.31;4115675;28;19926;-63
2023/05/11 02:55:33;;;;;;;;;;;;;;;24.65;36.75;101228.59;4121166;28;19922;-63
2023/05/11 02:57:35;;;;;;;;;;;;;;;24.66;36.73;101222.25;4114795;28;19950;-63
2023/05/11 02:59:36;;;;;;;;;;;;;;;24.65;36.39;101215.97;4119317;28;20012;-63
2023/05/11 03:01:38;;;;;;;;;;;;;;;24.64;36.81;101222.38;4128603;28;19922;-63
2023/05/11 03:03:40;;;;;;;;;;;;;;;24.64;36.72;101221.50;4130833;28;20462;-63
2023/05/11 03:05:41;;;;;;;;;;;;;;;24.63;36.67;101215.28;4117560;28;19929;-63
2023/05/11 03:07:43;;;;;;;;;;;;;;;24.65;36.68;101221.34;4098925;29;19922;-63
2023/05/11 03:09:45;;;;;;;;;;;;;;;24.64;36.40;101217.00;4113007;28;20307;-63
2023/05/11 03:11:46;;;;;;;;;;;;;;;24.65;36.50;101213.28;4123230;28;19926;-62
2023/05/11 03:13:49;;;;;;;;;;;;;;;24.67;36.33;101222.13;4113595;28;19937;-64
2023/05/11 03:15:51;;;;;;;;;;;;;;;24.66;36.62;101217.72;4123967;28;19929;-63
2023/05/11 03:17:53;;;;;;;;;;;;;;;24.69;36.60;101212.09;4115927;28;19922;-63
2023/05/11 03:19:56;;;;;;;;;;;;;;;24.68;36.47;101218.44;4116117;28;19922;-63
2023/05/11 03:21:59;;;;;;;;;;;;;;;24.69;36.24;101214.78;4126091;28;20016;-63
2023/05/11 03:24:01;;;;;;;;;;;;;;;24.69;36.21;101212.09;4114099;28;19922;-64
2023/05/11 03:26:03;;;;;;;;;;;;;;;24.68;36.55;101207.69;4123141;28;19925;-63
2023/05/11 03:28:06;;;;;;;;;;;;;;;24.69;36.42;101211.22;4130521;28;20025;-63
2023/05/11 03:30:08;;;;;;;;;;;;;;;24.68;36.48;101209.50;4128916;28;19930;-63
2023/05/11 03:32:10;;;;;;;;;;;;;;;24.68;36.58;101207.69;4119599;28;19926;-62
2023/05/11 03:34:12;;;;;;;;;;;;;;;24.69;36.31;101212.09;4130160;28;19922;-62
2023/05/11 03:36:14;;;;;;;;;;;;;;;24.71;36.61;101211.94;4122280;28;19962;-63
2023/05/11 03:38:15;;;;;;;;;;;;;;;24.69;36.61;101213.91;4126649;28;19973;-62
2023/05/11 03:40:18;;;;;;;;;;;;;;;24.67;36.74;101211.34;4128605;28;19932;-64
2023/05/11 03:42:20;;;;;;;;;;;;;;;24.69;36.63;101206.72;4119398;28;19965;-62
2023/05/11 03:44:23;;;;;;;;;;;;;;;24.69;36.48;101220.16;4129631;28;19929;-63
2023/05/11 03:46:25;;;;;;;;;;;;;;;24.70;36.71;101216.47;4123189;28;19945;-64
2023/05/11 03:48:27;;;;;;;;;;;;;;;24.70;36.58;101211.09;4125501;28;19953;-64
2023/05/11 03:50:29;;;;;;;;;;;;;;;24.72;36.61;101208.28;4129020;28;20294;-65
2023/05/11 03:52:31;;;;;;;;;;;;;;;24.71;36.65;101210.09;4119542;28;19922;-64
2023/05/11 03:54:32;;;;;;;;;;;;;;;24.71;36.59;101212.78;4131828;28;20325;-63
2023/05/11 03:56:35;;;;;;;;;;;;;;;24.69;36.30;101211.22;4127711;28;19922;-63
2023/05/11 03:58:38;;;;;;;;;;;;;;;24.71;36.60;101211.94;4126868;28;19944;-64
2023/05/11 04:00:40;;;;;;;;;;;;;;;24.73;36.18;101212.66;4130503;28;19922;-63
2023/05/11 04:02:41;;;;;;;;;;;;;;;24.74;36.38;101208.13;4128621;28;20016;-63
2023/05/11 04:04:43;;;;;;;;;;;;;;;24.74;36.40;101211.69;4116591;28;20013;-63
2023/05/11 04:06:45;;;;;;;;;;;;;;;24.73;36.42;101204.59;4120900;28;19929;-63
2023/05/11 04:08:46;;;;;;;;;;;;;;;24.74;36.51;101211.69;4124898;28;19937;-63
2023/05/11 04:10:48;;;;;;;;;;;;;;;24.73;36.40;101209.97;4117538;28;20269;-63
2023/05/11 04:12:50;;;;;;;;;;;;;;;24.76;36.45;101214.22;4128423;28;20013;-62
2023/05/11 04:14:51;;;;;;;;;;;;;;;24.76;36.28;101212.38;4116808;28;19921;-63
2023/05/11 04:16:53;;;;;;;;;;;;;;;24.75;36.10;101207.97;4122060;28;19925;-64
2023/05/11 04:18:54;;;;;;;;;;;;;;;24.76;36.29;101209.69;4126835;28;19922;-64
2023/05/11 04:20:56;;;;;;;;;;;;;;;24.76;36.07;101209.69;4117103;28;19922;-64
2023/05/11 04:22:58;;;;;;;;;;;;;;;24.76;36.52;101211.53;4120580;28;19922;-64
2023/05/11 04:24:59;;;;;;;;;;;;;;;24.75;36.53;101213.34;4129520;28;19921;-64
2023/05/11 04:27:01;;;;;;;;;;;;;;;24.76;36.29;101208.84;4129353;28;19922;-64
2023/05/11 04:29:02;;;;;;;;;;;;;;;24.78;35.97;101210.41;4128162;28;19926;-64
2023/05/11 04:31:04;;;;;;;;;;;;;;;24.78;36.38;101209.56;4116916;28;19929;-64
2023/05/11 04:33:05;;;;;;;;;;;;;;;24.79;36.14;101203.19;4124581;28;19932;-64
2023/05/11 04:35:07;;;;;;;;;;;;;;;24.78;36.08;101207.72;4120104;28;19930;-64
2023/05/11 04:37:09;;;;;;;;;;;;;;;24.78;36.44;101206.88;4118089;28;20291;-64
2023/05/11 04:39:10;;;;;;;;;;;;;;;24.79;36.02;101213.94;4127493;28;19922;-64
2023/05/11 04:41:13;;;;;;;;;;;;;;;24.79;36.07;101200.50;4116888;28;20425;-64
2023/05/11 04:43:15;;;;;;;;;;;;;;;24.79;36.12;101206.75;4122910;28;19922;-64
2023/05/11 04:45:16;;;;;;;;;;;;;;;24.79;36.33;101208.56;4121326;28;19929;-64
2023/05/11 04:47:18;;;;;;;;;;;;;;;24.77;36.51;101211.41;4117443;28;19926;-64
2023/05/11 04:49:19;;;;;;;;;;;;;;;24.77;36.20;101205.19;4127553;28;19922;-63
2023/05/11 04:51:21;;;;;;;;;;;;;;;24.77;36.28;101206.00;4116534;28;19926;-64
2023/05/11 04:53:22;;;;;;;;;;;;;;;24.78;36.32;101209.56;4120676;28;19922;-63
2023/05/11 04:55:24;;;;;;;;;;;;;;;24.78;36.26;101209.56;4123101;28;20268;-64
2023/05/11 04:57:25;;;;;;;;;;;;;;;24.79;36.44;101206.75;4116645;28;20346;-63
2023/05/11 04:59:27;;;;;;;;;;;;;;;24.78;36.36;101214.94;4128422;28;19933;-64
2023/05/11 05:01:29;;;;;;;;;;;;;;;24.79;36.24;101214.81;4116410;28;19922;-64
2023/05/11 05:03:30;;;;;;;;;;;;;;;24.78;36.03;101215.78;4118956;28;20058;-64
2023/05/11 05:05:32;;;;;;;;;;;;;;;24.81;36.33;101220.91;4123055;28;19977;-64
2023/05/11 05:07:33;;;;;;;;;;;;;;;24.81;36.06;101215.53;4116200;28;19922;-64
2023/05/11 05:09:35;;;;;;;;;;;;;;;24.82;36.29;101222.59;4126434;28;20034;-64
2023/05/11 05:11:36;;;;;;;;;;;;;;;24.83;36.12;101221.59;4118344;28;20259;-64
2023/05/11 05:13:38;;;;;;;;;;;;;;;24.82;36.07;101219.06;4099940;28;20020;-63
2023/05/11 05:15:39;;;;;;;;;;;;;;;24.81;36.41;101225.44;4109432;28;19928;-63
2023/05/11 05:17:42;;;;;;;;;;;;;;;24.80;36.15;101226.41;4131179;28;19921;-64
2023/05/11 05:19:43;;;;;;;;;;;;;;;24.81;36.37;101230.81;4123459;28;20056;-63
2023/05/11 05:21:45;;;;;;;;;;;;;;;24.83;36.24;101237.75;4125441;28;19936;-63
2023/05/11 05:23:47;;;;;;;;;;;;;;;24.83;36.14;101234.22;4117186;28;20055;-63
2023/05/11 05:25:48;;;;;;;;;;;;;;;24.84;36.14;101233.25;4129417;28;20443;-63
2023/05/11 05:27:49;;;;;;;;;;;;;;;24.85;36.19;101233.09;4132059;28;19930;-63
2023/05/11 05:29:51;;;;;;;;;;;;;;;24.87;35.98;101235.66;4125172;28;19922;-63
2023/05/11 05:31:52;;;;;;;;;;;;;;;24.88;36.10;101234.66;4126743;28;19922;-63
2023/05/11 05:33:54;;;;;;;;;;;;;;;24.87;36.00;101238.34;4130641;28;20344;-64
2023/05/11 05:35:56;;;;;;;;;;;;;;;24.89;35.95;101239.06;4125868;28;20039;-63
2023/05/11 05:37:57;;;;;;;;;;;;;;;24.90;36.04;101240.78;4115994;28;19926;-63
2023/05/11 05:39:59;;;;;;;;;;;;;;;24.91;35.83;101242.47;4120765;28;19928;-63
2023/05/11 05:42:01;;;;;;;;;;;;;;;24.89;36.19;101247.13;4122651;28;19976;-63
2023/05/11 05:44:03;;;;;;;;;;;;;;;24.90;35.79;101245.28;4115899;28;20446;-63
2023/05/11 05:46:05;;;;;;;;;;;;;;;24.91;35.92;101255.94;4126582;28;19928;-63
2023/05/11 05:48:08;;;;;;;;;;;;;;;24.92;36.24;101246.84;4115828;28;19976;-64
2023/05/11 05:50:10;;;;;;;;;;;;;;;24.93;36.15;101250.41;4119158;28;19926;-63
2023/05/11 05:52:12;;;;;;;;;;;;;;;24.92;36.07;101254.91;4123918;28;19936;-63
2023/05/11 05:54:13;;;;;;;;;;;;;;;24.93;35.95;101259.31;4115716;28;20396;-64
2023/05/11 05:56:15;;;;;;;;;;;;;;;24.93;36.13;101251.25;4125488;28;19929;-63
2023/05/11 05:58:16;;;;;;;;;;;;;;;24.94;35.87;101261.03;4116397;28;19924;-63
2023/05/11 06:00:18;;;;;;;;;;;;;;;24.95;35.83;101257.34;4117291;28;19922;-63
2023/05/11 06:02:21;;;;;;;;;;;;;;;24.96;36.14;101259.06;4121878;28;19926;-63
2023/05/11 06:04:22;;;;;;;;;;;;;;;24.95;35.97;101257.34;4131503;28;19926;-63
2023/05/11 06:06:24;;;;;;;;;;;;;;;24.96;36.06;101266.25;4120599;28;19926;-62
2023/05/11 06:08:26;;;;;;;;;;;;;;;24.96;36.04;101264.44;4128187;28;20008;-64
2023/05/11 06:10:28;;;;;;;;;;;;;;;24.96;35.65;101259.06;4116687;28;19932;-63
2023/05/11 06:12:30;;;;;;;;;;;;;;;24.99;35.76;101268.69;4126239;28;19922;-63
2023/05/11 06:14:31;;;;;;;;;;;;;;;24.99;35.75;101269.53;4115159;28;20342;-64
2023/05/11 06:16:32;;;;;;;;;;;;;;;25.00;35.85;101262.31;4121533;28;19921;-63
2023/05/11 06:18:34;;;;;;;;;;;;;;;24.99;35.93;101272.22;4119388;28;20013;-62
2023/05/11 06:20:36;;;;;;;;;;;;;;;24.99;35.95;101271.38;4117290;28;19968;-63
2023/05/11 06:22:37;;;;;;;;;;;;;;;24.98;35.77;101270.53;4123043;28;20425;-63
2023/05/11 06:24:39;;;;;;;;;;;;;;;24.99;36.00;101271.38;4097786;28;19923;-63
2023/05/11 06:26:40;;;;;;;;;;;;;;;24.96;36.00;101271.63;4122669;28;20008;-62
2023/05/11 06:28:42;;;;;;;;;;;;;;;25.00;35.69;101273.94;4120992;28;19922;-62
2023/05/11 06:30:43;;;;;;;;;;;;;;;24.99;35.88;101272.22;4115848;28;19933;-62
2023/05/11 06:32:44;;;;;;;;;;;;;;;24.98;36.00;101275.94;4126018;28;19921;-62
2023/05/11 06:34:46;;;;;;;;;;;;;;;24.97;36.10;101276.91;4114186;28;19922;-63
2023/05/11 06:36:48;;;;;;;;;;;;;;;24.97;35.70;101284.97;4119442;28;19929;-63
2023/05/11 06:38:49;;;;;;;;;;;;;;;24.99;35.74;101282.16;4122654;28;20375;-63
2023/05/11 06:40:51;;;;;;;;;;;;;;;24.98;36.00;101281.31;4115199;28;19937;-63
2023/05/11 06:42:53;;;;;;;;;;;;;;;24.96;35.71;101280.59;4126511;28;20403;-63
2023/05/11 06:44:54;;;;;;;;;;;;;;;24.95;35.77;101278.88;4113998;28;19922;-63
2023/05/11 06:46:56;;;;;;;;;;;;;;;24.97;35.98;101276.91;4117626;28;20359;-63
2023/05/11 06:48:58;;;;;;;;;;;;;;;24.99;35.75;101277.59;4123775;28;20033;-63
2023/05/11 06:51:00;;;;;;;;;;;;;;;25.02;35.98;101284.59;4114766;28;19945;-64
2023/05/11 06:53:01;;;;;;;;;;;;;;;25.00;35.73;101284.69;4107687;28;19921;-64
2023/05/11 06:55:03;;;;;;;;;;;;;;;25.03;35.68;101283.56;4115468;28;19931;-64
2023/05/11 06:57:05;;;;;;;;;;;;;;;25.03;35.65;101287.13;4115776;28;19929;-64
2023/05/11 06:59:06;;;;;;;;;;;;;;;25.04;35.77;101278.06;4109386;28;19929;-64
2023/05/11 07:01:09;;;;;;;;;;;;;;;25.07;35.68;101284.16;4123958;28;19976;-64
2023/05/11 07:03:11;;;;;;;;;;;;;;;25.06;35.60;101280.63;4122731;28;20243;-63
2023/05/11 07:05:12;;;;;;;;;;;;;;;25.07;35.97;101282.31;4117109;28;19922;-64
2023/05/11 07:07:14;;;;;;;;;;;;;;;25.04;35.93;101278.06;4115705;28;19960;-63
2023/05/11 07:09:16;;;;;;;;;;;;;;;25.02;35.80;101280.03;4125613;28;19968;-63
2023/05/11 07:11:17;;;;;;;;;;;;;;;25.00;35.67;101279.31;4130696;28;19921;-63
2023/05/11 07:13:19;;;;;;;;;;;;;;;24.98;35.78;101278.63;4123671;28;19929;-64
2023/05/11 07:15:21;;;;;;;;;;;;;;;24.99;36.00;101277.59;4124712;28;19985;-64
2023/05/11 07:17:22;;;;;;;;;;;;;;;24.99;36.16;101279.47;4128653;28;20357;-62
2023/05/11 07:19:24;;;;;;;;;;;;;;;24.97;36.04;101276.91;4119779;28;19926;-63
2023/05/11 07:21:26;;;;;;;;;;;;;;;24.97;35.89;101282.28;4130194;28;19925;-63
2023/05/11 07:23:27;;;;;;;;;;;;;;;24.97;35.74;101279.59;4119480;28;20412;-62
2023/05/11 07:25:29;;;;;;;;;;;;;;;24.98;36.02;101272.38;4122803;28;20340;-63
2023/05/11 07:27:31;;;;;;;;;;;;;;;24.99;35.80;101274.91;4130205;28;20359;-64
2023/05/11 07:29:33;;;;;;;;;;;;;;;25.03;35.86;101268.28;4120089;28;20316;-63
2023/05/11 07:31:35;;;;;;;;;;;;;;;25.02;35.75;101276.50;4133826;28;19922;-62
2023/05/11 07:33:37;;;;;;;;;;;;;;;25.03;36.04;101279.06;4129979;28;19921;-63
2023/05/11 07:35:39;;;;;;;;;;;;;;;25.04;36.01;101280.75;4124645;28;19933;-63
2023/05/11 07:37:40;;;;;;;;;;;;;;;25.06;35.74;101282.47;4133899;28;20360;-63
2023/05/11 07:39:42;;;;;;;;;;;;;;;25.04;35.85;101278.06;4122141;28;19922;-63
2023/05/11 07:41:44;;;;;;;;;;;;;;;25.06;35.97;101271.72;4133032;28;20421;-63
2023/05/11 07:43:45;;;;;;;;;;;;;;;25.06;36.19;101282.47;4131210;28;19948;-63
2023/05/11 07:45:47;;;;;;;;;;;;;;;25.05;36.01;101281.59;4122500;28;19929;-63
2023/05/11 07:47:48;;;;;;;;;;;;;;;25.04;36.09;101286.16;4133588;28;19929;-63
2023/05/11 07:49:50;;;;;;;;;;;;;;;25.03;35.98;101286.25;4123659;28;20012;-63
2023/05/11 07:51:51;;;;;;;;;;;;;;;25.04;36.03;101287.97;4131082;28;19945;-63
2023/05/11 07:53:53;;;;;;;;;;;;;;;25.04;35.75;101286.16;4132078;28;19952;-62
2023/05/11 07:55:55;;;;;;;;;;;;;;;25.04;35.91;101286.16;4121470;28;19921;-63
2023/05/11 07:57:56;;;;;;;;;;;;;;;25.04;36.09;101282.59;4133675;28;19928;-62
2023/05/11 07:59:57;;;;;;;;;;;;;;;25.04;35.92;101280.75;4125102;28;20315;-62
2023/05/11 08:01:59;;;;;;;;;;;;;;;25.08;36.08;101283.16;4128273;28;20001;-63
2023/05/11 08:04:01;;;;;;;;;;;;;;;25.08;36.03;101277.78;4131767;28;19992;-62
2023/05/11 08:06:02;;;;;;;;;;;;;;;25.07;36.04;101282.31;4121382;28;20394;-62
2023/05/11 08:08:04;;;;;;;;;;;;;;;25.07;36.12;101276.06;4133505;28;19957;-62
2023/05/11 08:10:06;;;;;;;;;;;;;;;25.08;36.06;101277.78;4125352;28;19925;-63
2023/05/11 08:12:08;;;;;;;;;;;;;;;25.07;36.09;101276.06;4123099;28;19922;-62
2023/05/11 08:14:09;;;;;;;;;;;;;;;25.07;35.90;101276.06;4117939;28;19937;-63
2023/05/11 08:16:11;;;;;;;;;;;;;;;25.05;35.80;101284.28;4109677;28;20384;-63
2023/05/11 08:18:13;;;;;;;;;;;;;;;25.05;36.07;101284.28;4117272;28;19922;-63
2023/05/11 08:20:14;;;;;;;;;;;;;;;25.06;36.11;101274.41;4121571;28;20029;-63
2023/05/11 08:22:16;;;;;;;;;;;;;;;25.06;35.97;101282.47;4126310;28;19922;-63
2023/05/11 08:24:18;;;;;;;;;;;;;;;25.08;36.09;101277.78;4117126;28;19966;-63
2023/05/11 08:26:20;;;;;;;;;;;;;;;25.07;36.06;101282.31;4127590;28;19988;-63
2023/05/11 08:28:21;;;;;;;;;;;;;;;25.09;36.10;101276.81;4132916;28;20020;-63
2023/05/11 08:30:23;;;;;;;;;;;;;;;25.09;35.75;101279.50;4129588;28;19921;-64
2023/05/11 08:32:25;;;;;;;;;;;;;;;25.09;35.80;101274.09;4123561;28;19922;-63
2023/05/11 08:34:27;;;;;;;;;;;;;;;25.08;35.80;101285.84;4119479;28;19930;-63
2023/05/11 08:36:29;;;;;;;;;;;;;;;25.08;35.97;101272.41;4113468;28;19944;-61
2023/05/11 08:38:30;;;;;;;;;;;;;;;24.97;36.13;101286.81;4129709;28;19922;-62
2023/05/11 08:40:32;;;;;;;;;;;;;;;24.84;35.68;101276.28;4113968;28;19926;-62
2023/05/11 08:42:34;;;;;;;;;;;;;;;24.72;35.91;101278.19;4111602;28;19965;-60
2023/05/11 08:44:37;;;;;;;;;;;;;;;24.67;35.64;101273.22;4122351;28;19933;-60
2023/05/11 08:46:40;;;;;;;;;;;;;;;24.61;35.84;101273.72;4122987;28;20024;-61
2023/05/11 08:48:43;;;;;;;;;;;;;;;24.51;35.42;101270.97;4121338;28;20029;-61
2023/05/11 08:50:44;;;;;;;;;;;;;;;24.41;35.61;101272.75;4126407;28;20082;-61
2023/05/11 08:52:46;;;;;;;;;;;;;;;24.34;35.78;101272.44;4126327;28;19922;-63
2023/05/11 08:54:47;;;;;;;;;;;;;;;24.29;35.50;101280.03;4121417;28;20414;-60
2023/05/11 08:56:50;;;;;;;;;;;;;;;24.22;35.80;101279.69;4122062;28;19933;-61
2023/05/11 08:58:53;;;;;;;;;;;;;;;24.21;35.71;101277.16;4120349;28;19929;-61
2023/05/11 09:00:57;;;;;;;;;;;;;;;24.17;35.60;101273.88;4125237;28;19926;-61
2023/05/11 09:02:59;;;;;;;;;;;;;;;24.12;35.70;101275.22;4127441;28;20164;-62
2023/05/11 09:05:02;;;;;;;;;;;;;;;24.09;35.59;101270.97;4123543;28;19929;-61
2023/05/11 09:07:04;;;;;;;;;;;;;;;24.08;35.63;101269.25;4123826;28;19922;-64
2023/05/11 09:09:06;;;;;;;;;;;;;;;24.08;35.43;101266.56;4125818;28;19928;-62
2023/05/11 09:11:08;;;;;;;;;;;;;;;24.12;35.37;101265.34;4124197;28;19932;-60
2023/05/11 09:13:10;;;;;;;;;;;;;;;24.09;35.32;101265.59;4126893;28;19981;-61
2023/05/11 09:15:12;;;;;;;;;;;;;;;24.07;35.35;101268.41;4122512;28;20016;-63
2023/05/11 09:17:13;;;;;;;;;;;;;;;23.99;35.65;101270.06;4126557;28;19944;-63
2023/05/11 09:19:15;;;;;;;;;;;;;;;24.04;35.77;101265.97;4125889;28;20368;-64
2023/05/11 09:21:17;;;;;;;;;;;;;;;24.05;35.53;101267.69;4123967;28;20024;-63
2023/05/11 09:23:23;;;;;;;;;;;;;;;23.99;35.60;101267.38;4121462;28;19925;-64
2023/05/11 09:25:25;;;;;;;;;;;;;;;23.98;35.61;101269.19;4123231;28;19922;-64
2023/05/11 09:27:26;;;;;;;;;;;;;;;23.97;35.67;101263.94;4125740;28;20004;-64
2023/05/11 09:29:28;;;;;;;;;;;;;;;23.92;35.69;101266.97;4123517;28;19945;-64
2023/05/11 09:31:35;;;;;;;;;;;;;;;23.85;35.42;101274.72;4120867;28;19921;-65
2023/05/11 09:33:37;;;;;;;;;;;;;;;23.80;35.80;101268.84;4108824;28;19922;-63
2023/05/11 09:35:39;;;;;;;;;;;;;;;23.74;35.52;101274.72;4120547;28;20300;-63
2023/05/11 09:37:55;;;;;;;;;;;;;;;23.70;35.70;101271.44;4125357;28;19925;-64
2023/05/11 09:39:56;;;;;;;;;;;;;;;23.66;35.97;101271.81;4122536;28;19928;-64
2023/05/11 09:42:17;;;;;;;;;;;;;;;23.58;35.73;101273.31;4114028;28;19932;-65
2023/05/11 09:44:18;;;;;;;;;;;;;;;23.51;36.03;101272.09;4123431;28;19930;-64
2023/05/11 09:46:20;;;;;;;;;;;;;;;23.46;36.02;101266.25;4114057;28;20462;-65
2023/05/11 09:48:30;;;;;;;;;;;;;;;23.38;36.23;101274.97;4114921;28;19930;-63
2023/05/11 09:50:33;;;;;;;;;;;;;;;23.29;36.56;101270.31;4116516;28;20427;-61
2023/05/11 09:52:42;;;;;;;;;;;;;;;23.27;36.26;101273.13;4115495;28;20340;-61
2023/05/11 09:54:45;;;;;;;;;;;;;;;23.24;36.12;101269.84;4121300;28;20376;-61
2023/05/11 09:56:48;;;;;;;;;;;;;;;23.22;36.58;101272.66;4129625;28;19928;-62
2023/05/11 09:58:50;;;;;;;;;;;;;;;23.19;36.38;101274.75;4123954;28;20388;-61
2023/05/11 10:00:52;;;;;;;;;;;;;;;23.07;36.92;101268.50;4102413;28;19922;-61
2023/05/11 10:03:01;;;;;;;;;;;;;;;23.04;36.57;101266.91;4105761;28;20009;-62
2023/05/11 10:05:10;;;;;;;;;;;;;;;23.08;36.80;101270.19;4125465;28;19926;-63
2023/05/11 10:07:22;;;;;;;;;;;;;;;23.05;36.74;101263.25;4112443;28;20017;-62
2023/05/11 10:09:24;;;;;;;;;;;;;;;23.03;37.04;101259.00;4123320;28;19932;-63
2023/05/11 10:11:26;;;;;;;;;;;;;;;23.00;36.87;101265.44;4117575;28;19930;-65
2023/05/11 10:13:28;;;;;;;;;;;;;;;23.00;36.88;101254.69;4115804;28;19957;-65
2023/05/11 10:15:31;;;;;;;;;;;;;;;22.99;37.18;101255.69;4124473;28;19976;-64
2023/05/11 10:17:33;;;;;;;;;;;;;;;23.00;37.26;101260.06;4095718;28;20040;-63
2023/05/11 10:19:35;;;;;;;;;;;;;;;22.98;37.28;101260.19;4117299;28;19926;-62
2023/05/11 10:21:36;;;;;;;;;;;;;;;22.98;37.40;101254.00;4118838;28;19922;-62
2023/05/11 10:23:38;;;;;;;;;;;;;;;22.98;37.49;101256.66;4115422;28;19976;-63
2023/05/11 10:25:39;;;;;;;;;;;;;;;23.02;37.12;101251.91;4126270;28;20343;-62
2023/05/11 10:27:41;;;;;;;;;;;;;;;23.01;37.31;101255.56;4130181;28;19980;-63